Time;durP1;ratioP1;P1;durP2;ratioP2;P2;SDS_P1;SDS_P2;PMS_P1;PMS_P2;Temp;Humidity;BMP_temperature;BMP_pressure;BME280_temperature;BME280_humidity;BME280_pressure;Samples;Min_cycle;Max_cycle;Signal;HPM_P1;HPM_P2
2022/09/22 00:00:15;;;;;;;;;4.25;4.25;;;;;;;;5104295;27;61908;-79
2022/09/22 00:02:40;;;;;;;;;9.00;7.00;;;;;;;;5104135;27;61786;-78
2022/09/22 00:05:06;;;;;;;;;7.25;4.50;;;;;;;;5104243;27;61998;-78
2022/09/22 00:07:31;;;;;;;;;4.75;4.75;;;;;;;;5103093;27;62761;-78
2022/09/22 00:09:57;;;;;;;;;10.00;8.00;;;;;;;;5102545;27;61958;-78
2022/09/22 00:12:22;;;;;;;;;9.00;5.00;;;;;;;;5104082;27;62083;-78
2022/09/22 00:14:48;;;;;;;;;6.00;4.50;;;;;;;;5103737;27;62102;-78
2022/09/22 00:17:13;;;;;;;;;5.00;5.00;;;;;;;;5101917;27;64619;-78
2022/09/22 00:19:38;;;;;;;;;6.75;5.50;;;;;;;;5102309;27;61939;-78
2022/09/22 00:22:04;;;;;;;;;7.25;6.75;;;;;;;;5103327;27;62076;-78
2022/09/22 00:24:30;;;;;;;;;6.75;6.75;;;;;;;;5102162;27;62022;-78
2022/09/22 00:26:56;;;;;;;;;5.25;5.25;;;;;;;;5101397;27;63942;-78
2022/09/22 00:29:22;;;;;;;;;5.75;5.75;;;;;;;;5103653;27;61798;-78
2022/09/22 00:31:47;;;;;;;;;8.00;8.00;;;;;;;;5102279;27;61803;-78
2022/09/22 00:34:15;;;;;;;;;5.25;5.25;;;;;;;;5103581;27;61706;-79
2022/09/22 00:36:41;;;;;;;;;5.25;5.00;;;;;;;;5100804;27;64371;-78
2022/09/22 00:39:06;;;;;;;;;8.75;7.25;;;;;;;;5103352;27;61808;-78
2022/09/22 00:41:35;;;;;;;;;7.50;5.25;;;;;;;;5101936;27;61865;-78
2022/09/22 00:44:19;;;;;;;;;8.00;7.25;;;;;;;;5103673;27;61922;-78
2022/09/22 00:46:46;;;;;;;;;7.50;7.00;;;;;;;;5101296;27;63845;-78
2022/09/22 00:49:13;;;;;;;;;9.25;8.25;;;;;;;;5102021;27;61785;-79
2022/09/22 00:51:40;;;;;;;;;8.00;7.25;;;;;;;;5101785;27;61937;-78
2022/09/22 00:54:08;;;;;;;;;10.00;6.00;;;;;;;;5101530;27;62166;-79
2022/09/22 00:56:36;;;;;;;;;11.25;9.75;;;;;;;;5102251;27;62070;-79
2022/09/22 00:59:04;;;;;;;;;6.75;4.75;;;;;;;;5101672;27;61806;-79
2022/09/22 01:01:29;;;;;;;;;7.00;6.25;;;;;;;;5101829;27;61677;-79
2022/09/22 01:03:55;;;;;;;;;7.25;5.75;;;;;;;;5103428;27;61970;-78
2022/09/22 01:06:23;;;;;;;;;7.25;7.25;;;;;;;;5102124;27;62130;-79
2022/09/22 01:08:49;;;;;;;;;8.25;6.25;;;;;;;;5101054;27;61848;-78
2022/09/22 01:11:16;;;;;;;;;8.75;8.50;;;;;;;;5103103;27;62000;-78
2022/09/22 01:13:56;;;;;;;;;9.50;6.75;;;;;;;;5103296;27;61736;-79
2022/09/22 01:16:32;;;;;;;;;7.25;6.25;;;;;;;;5102260;27;62960;-78
2022/09/22 01:19:20;;;;;;;;;10.00;7.00;;;;;;;;5102842;27;62064;-78
2022/09/22 01:21:48;;;;;;;;;9.50;7.00;;;;;;;;5101421;27;61835;-78
2022/09/22 01:24:31;;;;;;;;;12.50;8.25;;;;;;;;5102475;27;62078;-78
2022/09/22 01:27:15;;;;;;;;;9.00;9.00;;;;;;;;5101757;27;61994;-79
2022/09/22 01:29:59;;;;;;;;;7.75;7.75;;;;;;;;5101407;27;61978;-78
2022/09/22 01:32:37;;;;;;;;;10.50;9.25;;;;;;;;5102988;27;61753;-79
2022/09/22 01:35:32;;;;;;;;;13.00;12.75;;;;;;;;5102714;27;61738;-78
2022/09/22 01:37:57;;;;;;;;;9.25;8.75;;;;;;;;5018010;28;61888;-78
2022/09/22 01:40:34;;;;;;;;;7.75;7.75;;;;;;;;5019545;28;61852;-78
2022/09/22 01:43:12;;;;;;;;;11.25;8.50;;;;;;;;5019368;28;62373;-78
2022/09/22 01:45:39;;;;;;;;;13.00;8.25;;;;;;;;5002901;28;62374;-78
2022/09/22 01:48:08;;;;;;;;;11.25;10.25;;;;;;;;5018404;28;62080;-78
2022/09/22 01:50:33;;;;;;;;;19.50;10.50;;;;;;;;5020537;28;61867;-78
2022/09/22 01:53:02;;;;;;;;;9.50;8.50;;;;;;;;5022131;28;62200;-78
2022/09/22 01:55:32;;;;;;;;;10.25;9.75;;;;;;;;5022473;28;61988;-78
2022/09/22 01:58:01;;;;;;;;;10.25;9.25;;;;;;;;5022360;28;61919;-78
2022/09/22 02:00:26;;;;;;;;;10.25;9.00;;;;;;;;5006096;28;62050;-78
2022/09/22 02:02:52;;;;;;;;;5.75;5.75;;;;;;;;5006031;28;61851;-78
2022/09/22 02:05:20;;;;;;;;;9.75;9.00;;;;;;;;5022379;28;62070;-78
2022/09/22 02:07:48;;;;;;;;;12.25;10.25;;;;;;;;5021562;28;61988;-78
2022/09/22 02:10:16;;;;;;;;;11.25;7.75;;;;;;;;5022385;28;61764;-78
2022/09/22 02:12:41;;;;;;;;;7.75;7.75;;;;;;;;5022442;28;61926;-78
2022/09/22 02:15:58;;;;;;;;;9.00;9.00;;;;;;;;5089726;27;61734;-78
2022/09/22 02:17:58;;;;;;;;;9.00;7.00;;;;;;;;5105120;27;63075;-78
2022/09/22 02:20:25;;;;;;;;;11.75;7.50;;;;;;;;5105581;27;61972;-78
2022/09/22 02:22:50;;;;;;;;;11.75;10.00;;;;;;;;5105294;27;61723;-78
2022/09/22 02:25:16;;;;;;;;;9.00;8.50;;;;;;;;5105542;27;61971;-78
2022/09/22 02:27:42;;;;;;;;;14.00;9.50;;;;;;;;5105152;27;62748;-78
2022/09/22 02:30:09;;;;;;;;;13.50;11.00;;;;;;;;5105440;27;62029;-78
2022/09/22 02:32:36;;;;;;;;;6.25;6.25;;;;;;;;5105463;27;61714;-78
2022/09/22 02:35:02;;;;;;;;;8.25;8.00;;;;;;;;5105480;27;61730;-78
2022/09/22 02:38:02;;;;;;;;;8.25;7.00;;;;;;;;5104484;27;63136;-78
2022/09/22 02:40:31;;;;;;;;;13.75;10.75;;;;;;;;5065313;28;61828;-78
2022/09/22 02:43:07;;;;;;;;;12.25;8.00;;;;;;;;5082384;28;61897;-78
2022/09/22 02:45:36;;;;;;;;;8.00;7.00;;;;;;;;5065354;28;61820;-78
2022/09/22 02:48:04;;;;;;;;;13.00;8.00;;;;;;;;5064585;28;64942;-79
2022/09/22 02:50:31;;;;;;;;;9.50;8.00;;;;;;;;5081842;28;61966;-78
2022/09/22 02:52:59;;;;;;;;;12.25;11.75;;;;;;;;5082050;28;62153;-78
2022/09/22 02:55:25;;;;;;;;;11.75;10.00;;;;;;;;5064749;28;61921;-78
2022/09/22 02:57:50;;;;;;;;;9.25;8.50;;;;;;;;5081590;28;62014;-78
2022/09/22 03:00:15;;;;;;;;;11.00;9.00;;;;;;;;5081986;28;61890;-78
2022/09/22 03:02:40;;;;;;;;;11.00;9.00;;;;;;;;5082164;28;61936;-78
2022/09/22 03:05:06;;;;;;;;;14.00;8.75;;;;;;;;5082068;28;61895;-78
2022/09/22 03:07:31;;;;;;;;;10.50;9.25;;;;;;;;5080888;28;61867;-78
2022/09/22 03:09:56;;;;;;;;;11.00;7.00;;;;;;;;5082048;28;62003;-78
2022/09/22 03:12:22;;;;;;;;;9.00;8.75;;;;;;;;5081722;28;61803;-78
2022/09/22 03:14:48;;;;;;;;;8.50;7.50;;;;;;;;5088489;27;62014;-79
2022/09/22 03:17:14;;;;;;;;;7.25;7.25;;;;;;;;5102943;27;64665;-78
2022/09/22 03:19:39;;;;;;;;;17.75;9.00;;;;;;;;5103193;27;62045;-78
2022/09/22 03:22:04;;;;;;;;;13.25;10.50;;;;;;;;5104471;27;61764;-78
2022/09/22 03:24:29;;;;;;;;;8.00;7.75;;;;;;;;5104712;27;61742;-78
2022/09/22 03:26:55;;;;;;;;;11.25;9.00;;;;;;;;5104034;27;61820;-78
2022/09/22 03:29:20;;;;;;;;;12.50;8.25;;;;;;;;5104636;27;61786;-78
2022/09/22 03:31:45;;;;;;;;;11.75;9.00;;;;;;;;5104592;27;61779;-78
2022/09/22 03:34:11;;;;;;;;;14.50;11.75;;;;;;;;5104460;27;61736;-78
2022/09/22 03:36:36;;;;;;;;;16.25;12.00;;;;;;;;5103820;27;62300;-78
2022/09/22 03:39:01;;;;;;;;;9.75;9.75;;;;;;;;5104283;27;61924;-79
2022/09/22 03:41:26;;;;;;;;;11.00;7.25;;;;;;;;5102955;27;61746;-78
2022/09/22 03:43:52;;;;;;;;;12.00;9.00;;;;;;;;5103493;27;61695;-78
2022/09/22 03:46:17;;;;;;;;;13.25;8.50;;;;;;;;5103541;27;62727;-79
2022/09/22 03:48:43;;;;;;;;;9.25;9.25;;;;;;;;5103967;27;61824;-78
2022/09/22 03:51:08;;;;;;;;;10.00;7.25;;;;;;;;5104519;27;61694;-78
2022/09/22 03:53:34;;;;;;;;;11.25;8.75;;;;;;;;5101539;27;62279;-78
2022/09/22 03:56:06;;;;;;;;;15.25;10.00;;;;;;;;5102053;27;63416;-78
2022/09/22 03:58:32;;;;;;;;;9.75;8.75;;;;;;;;5102640;27;61944;-78
2022/09/22 04:00:57;;;;;;;;;11.25;8.00;;;;;;;;5102817;27;61848;-78
2022/09/22 04:03:23;;;;;;;;;10.00;8.75;;;;;;;;5102663;27;62214;-78
2022/09/22 04:05:49;;;;;;;;;13.00;11.25;;;;;;;;5101793;27;63907;-78
2022/09/22 04:08:14;;;;;;;;;8.50;8.50;;;;;;;;5102350;27;62002;-78
2022/09/22 04:10:41;;;;;;;;;8.50;6.50;;;;;;;;5102382;27;61967;-78
2022/09/22 04:13:08;;;;;;;;;10.25;9.00;;;;;;;;5102171;27;61769;-78
2022/09/22 04:15:34;;;;;;;;;12.50;7.00;;;;;;;;5101589;27;63445;-78
2022/09/22 04:17:59;;;;;;;;;15.75;8.00;;;;;;;;5102296;27;61812;-78
2022/09/22 04:20:26;;;;;;;;;8.75;8.75;;;;;;;;5104064;27;61957;-78
2022/09/22 04:22:51;;;;;;;;;10.75;7.50;;;;;;;;5103485;27;61955;-78
2022/09/22 04:25:16;;;;;;;;;9.50;5.00;;;;;;;;5102834;27;61789;-79
2022/09/22 04:27:42;;;;;;;;;6.50;6.00;;;;;;;;5102204;27;61801;-78
2022/09/22 04:30:07;;;;;;;;;12.75;9.75;;;;;;;;5103880;27;62171;-78
2022/09/22 04:32:32;;;;;;;;;11.00;8.25;;;;;;;;5103794;27;61720;-78
2022/09/22 04:34:58;;;;;;;;;10.25;9.00;;;;;;;;5100987;27;64950;-78
2022/09/22 04:37:23;;;;;;;;;12.75;9.00;;;;;;;;5101798;27;62010;-78
2022/09/22 04:39:49;;;;;;;;;7.25;7.25;;;;;;;;5103516;27;61682;-78
2022/09/22 04:42:14;;;;;;;;;15.50;9.50;;;;;;;;5102208;27;61973;-78
2022/09/22 04:44:39;;;;;;;;;11.25;9.50;;;;;;;;5101312;27;63960;-79
2022/09/22 04:47:05;;;;;;;;;10.50;9.50;;;;;;;;5103048;27;61740;-78
2022/09/22 04:49:30;;;;;;;;;10.25;9.00;;;;;;;;5103315;27;62222;-78
2022/09/22 04:51:55;;;;;;;;;12.25;10.75;;;;;;;;5103124;27;61817;-78
2022/09/22 04:54:20;;;;;;;;;11.75;9.00;;;;;;;;5101748;27;61866;-78
2022/09/22 04:56:46;;;;;;;;;12.25;10.50;;;;;;;;5100996;27;61868;-78
2022/09/22 04:59:11;;;;;;;;;9.50;8.75;;;;;;;;5101626;27;61979;-78
2022/09/22 05:01:37;;;;;;;;;14.50;12.00;;;;;;;;5102939;27;61734;-78
2022/09/22 05:04:02;;;;;;;;;14.75;11.50;;;;;;;;5101261;27;63810;-80
2022/09/22 05:06:27;;;;;;;;;12.00;9.00;;;;;;;;5103103;27;61799;-80
2022/09/22 05:08:52;;;;;;;;;13.75;9.50;;;;;;;;5102777;27;61926;-80
2022/09/22 05:11:22;;;;;;;;;11.00;8.50;;;;;;;;5103225;27;61822;-80
2022/09/22 05:13:48;;;;;;;;;10.50;10.50;;;;;;;;5102525;27;61995;-80
2022/09/22 05:16:13;;;;;;;;;3.00;1.75;;;;;;;;5102741;27;61779;-82
2022/09/22 05:18:38;;;;;;;;;10.50;10.00;;;;;;;;5101741;27;61752;-80
2022/09/22 05:21:04;;;;;;;;;10.75;10.00;;;;;;;;5101548;27;61857;-81
2022/09/22 05:23:31;;;;;;;;;11.25;11.25;;;;;;;;5100133;27;63420;-80
2022/09/22 05:25:56;;;;;;;;;9.25;9.00;;;;;;;;5101636;27;61731;-82
2022/09/22 05:28:21;;;;;;;;;8.75;8.75;;;;;;;;5101594;27;61695;-81
2022/09/22 05:30:48;;;;;;;;;16.00;11.00;;;;;;;;5102706;27;61677;-81
2022/09/22 05:33:14;;;;;;;;;13.00;9.00;;;;;;;;5102166;27;62900;-80
2022/09/22 05:35:39;;;;;;;;;14.25;10.75;;;;;;;;5101022;27;62033;-79
2022/09/22 05:38:04;;;;;;;;;7.75;7.75;;;;;;;;5102521;27;61825;-79
2022/09/22 05:40:29;;;;;;;;;11.25;7.00;;;;;;;;5101232;27;61833;-80
2022/09/22 05:42:55;;;;;;;;;11.75;10.50;;;;;;;;5100216;27;63870;-83
2022/09/22 05:45:20;;;;;;;;;11.75;10.50;;;;;;;;5100606;27;62013;-81
2022/09/22 05:47:46;;;;;;;;;9.50;8.50;;;;;;;;5099833;27;61792;-82
2022/09/22 05:50:12;;;;;;;;;10.25;9.50;;;;;;;;5099485;27;61919;-81
2022/09/22 05:52:37;;;;;;;;;10.00;10.00;;;;;;;;5099159;27;63755;-83
2022/09/22 05:55:03;;;;;;;;;8.25;8.25;;;;;;;;5099162;27;61908;-81
2022/09/22 05:57:30;;;;;;;;;12.50;11.25;;;;;;;;5101729;27;61977;-82
2022/09/22 05:59:56;;;;;;;;;12.00;9.00;;;;;;;;5101802;27;61799;-82
2022/09/22 06:02:22;;;;;;;;;14.50;11.75;;;;;;;;5099503;27;63661;-81
2022/09/22 06:04:48;;;;;;;;;16.00;12.00;;;;;;;;5100399;27;61947;-81
2022/09/22 06:07:14;;;;;;;;;13.25;10.00;;;;;;;;5101823;27;61936;-79
2022/09/22 06:09:39;;;;;;;;;11.25;10.00;;;;;;;;5100602;27;62197;-81
2022/09/22 06:12:07;;;;;;;;;12.00;12.00;;;;;;;;5101649;27;62065;-81
2022/09/22 06:14:33;;;;;;;;;12.25;12.25;;;;;;;;5102215;27;61943;-81
2022/09/22 06:16:58;;;;;;;;;14.00;10.25;;;;;;;;5102029;27;61985;-81
2022/09/22 06:19:24;;;;;;;;;13.50;13.50;;;;;;;;5102367;27;61831;-81
2022/09/22 06:21:51;;;;;;;;;8.50;6.00;;;;;;;;5101680;27;62697;-81
2022/09/22 06:24:16;;;;;;;;;12.75;12.75;;;;;;;;5099730;27;61863;-81
2022/09/22 06:26:42;;;;;;;;;12.50;10.75;;;;;;;;5100683;27;61740;-81
2022/09/22 06:29:09;;;;;;;;;11.75;11.75;;;;;;;;5102211;27;61701;-81
2022/09/22 06:31:35;;;;;;;;;14.75;13.00;;;;;;;;5100291;27;61958;-80
2022/09/22 06:34:00;;;;;;;;;12.25;10.50;;;;;;;;5100832;27;62074;-79
2022/09/22 06:36:31;;;;;;;;;9.50;9.50;;;;;;;;5100441;27;62150;-79
2022/09/22 06:38:57;;;;;;;;;20.50;10.75;;;;;;;;5103437;27;62160;-79
2022/09/22 06:41:27;;;;;;;;;13.75;13.00;;;;;;;;5103188;27;63698;-79
2022/09/22 06:43:55;;;;;;;;;12.00;10.50;;;;;;;;5103103;27;61951;-81
2022/09/22 06:46:25;;;;;;;;;12.00;9.75;;;;;;;;5102058;27;61841;-78
2022/09/22 06:48:50;;;;;;;;;11.75;10.25;;;;;;;;5104544;27;62090;-77
2022/09/22 06:51:16;;;;;;;;;11.75;10.75;;;;;;;;5103477;27;61767;-77
2022/09/22 06:53:43;;;;;;;;;13.50;12.00;;;;;;;;5103002;27;61987;-77
2022/09/22 06:56:08;;;;;;;;;13.25;9.00;;;;;;;;5102975;27;62072;-77
2022/09/22 06:58:33;;;;;;;;;11.25;10.00;;;;;;;;5103838;27;61956;-77
2022/09/22 07:01:05;;;;;;;;;12.25;9.75;;;;;;;;5104348;27;62089;-77
2022/09/22 07:03:32;;;;;;;;;14.75;11.50;;;;;;;;5103770;27;62165;-77
2022/09/22 07:05:58;;;;;;;;;16.00;14.00;;;;;;;;5103773;27;61848;-76
2022/09/22 07:08:23;;;;;;;;;13.50;11.00;;;;;;;;5103711;27;61982;-76
2022/09/22 07:10:53;;;;;;;;;13.00;10.25;;;;;;;;5103083;27;63637;-76
2022/09/22 07:13:18;;;;;;;;;16.25;13.00;;;;;;;;5104740;27;61875;-76
2022/09/22 07:15:43;;;;;;;;;13.00;11.00;;;;;;;;5103564;27;61871;-75
2022/09/22 07:18:09;;;;;;;;;16.25;12.75;;;;;;;;5105134;27;61738;-75
2022/09/22 07:20:34;;;;;;;;;13.25;12.00;;;;;;;;5102982;27;63745;-75
2022/09/22 07:23:00;;;;;;;;;12.25;12.00;;;;;;;;5103136;27;62016;-76
2022/09/22 07:25:27;;;;;;;;;15.75;11.25;;;;;;;;5103323;27;61857;-75
2022/09/22 07:27:53;;;;;;;;;11.25;11.25;;;;;;;;5105095;27;61788;-75
2022/09/22 07:30:21;;;;;;;;;10.25;8.50;;;;;;;;5104480;27;61904;-76
2022/09/22 07:32:46;;;;;;;;;12.00;10.50;;;;;;;;5104737;27;62110;-75
2022/09/22 07:35:11;;;;;;;;;10.25;10.25;;;;;;;;5104769;27;62544;-75
2022/09/22 07:37:39;;;;;;;;;10.50;8.75;;;;;;;;5104468;27;61797;-76
2022/09/22 07:40:06;;;;;;;;;11.00;9.00;;;;;;;;5102666;27;65000;-76
2022/09/22 07:42:31;;;;;;;;;7.75;7.75;;;;;;;;5104474;27;61753;-75
2022/09/22 07:45:12;;;;;;;;;10.50;7.50;;;;;;;;5104737;27;62076;-75
2022/09/22 07:50:21;;;;;;;;;11.75;10.75;;;;;;;;5103872;27;62429;-75
2022/09/22 07:52:53;;;;;;;;;11.00;10.50;;;;;;;;5103413;27;62031;-76
2022/09/22 07:55:23;;;;;;;;;17.50;11.50;;;;;;;;5102375;27;61998;-76
2022/09/22 07:57:55;;;;;;;;;18.00;12.50;;;;;;;;5104688;27;61765;-75
2022/09/22 08:00:22;;;;;;;;;16.25;15.50;;;;;;;;5103820;27;62397;-75
2022/09/22 08:02:55;;;;;;;;;14.75;14.00;;;;;;;;5104094;27;62488;-75
2022/09/22 08:05:24;;;;;;;;;19.25;16.25;;;;;;;;5102992;27;62096;-76
2022/09/22 08:07:50;;;;;;;;;15.75;14.00;;;;;;;;5104309;27;61962;-75
2022/09/22 08:10:16;;;;;;;;;21.25;14.00;;;;;;;;5103555;27;62571;-76
2022/09/22 08:12:41;;;;;;;;;13.00;10.75;;;;;;;;5104170;27;61721;-76
2022/09/22 08:15:07;;;;;;;;;12.50;12.25;;;;;;;;5102742;27;62027;-75
2022/09/22 08:17:32;;;;;;;;;14.25;10.75;;;;;;;;5104262;27;61729;-75
2022/09/22 08:20:01;;;;;;;;;9.00;9.00;;;;;;;;5103425;27;62774;-76
2022/09/22 08:22:27;;;;;;;;;13.50;11.50;;;;;;;;5102614;27;62761;-76
2022/09/22 08:24:52;;;;;;;;;10.50;9.50;;;;;;;;5101984;27;61937;-75
2022/09/22 08:27:18;;;;;;;;;14.00;9.00;;;;;;;;5104134;27;61852;-75
2022/09/22 08:29:45;;;;;;;;;12.00;10.75;;;;;;;;5101911;27;63659;-76
2022/09/22 08:32:11;;;;;;;;;15.25;12.25;;;;;;;;5102502;27;61778;-75
2022/09/22 08:34:36;;;;;;;;;14.50;10.00;;;;;;;;5103938;27;61757;-76
2022/09/22 08:37:02;;;;;;;;;11.00;11.00;;;;;;;;5101871;27;61765;-76
2022/09/22 08:39:27;;;;;;;;;12.75;8.75;;;;;;;;5102565;27;63014;-75
2022/09/22 08:41:55;;;;;;;;;11.50;10.00;;;;;;;;5102204;27;61973;-75
2022/09/22 08:44:43;;;;;;;;;9.00;8.50;;;;;;;;5102540;27;61856;-76
2022/09/22 08:47:14;;;;;;;;;12.75;9.25;;;;;;;;5103526;27;61701;-76
2022/09/22 08:52:27;;;;;;;;;10.50;9.25;;;;;;;;5103395;27;62010;-75
2022/09/22 08:54:58;;;;;;;;;10.25;10.25;;;;;;;;5102568;27;61935;-76
2022/09/22 08:57:43;;;;;;;;;14.50;7.25;;;;;;;;5103601;27;61885;-75
2022/09/22 09:00:31;;;;;;;;;9.00;6.75;;;;;;;;5100940;27;63666;-76
2022/09/22 09:03:15;;;;;;;;;8.25;8.25;;;;;;;;5093229;27;62136;-75
2022/09/22 09:05:47;;;;;;;;;10.25;8.25;;;;;;;;5101967;27;62266;-76
2022/09/22 09:08:39;;;;;;;;;9.00;9.00;;;;;;;;5101688;27;61971;-75
2022/09/22 09:11:19;;;;;;;;;14.75;12.00;;;;;;;;5099530;27;62137;-76
2022/09/22 09:13:56;;;;;;;;;7.00;7.00;;;;;;;;5103045;27;61624;-76
2022/09/22 09:16:40;;;;;;;;;9.50;9.00;;;;;;;;5103249;27;61964;-76
2022/09/22 09:19:13;;;;;;;;;8.00;7.25;;;;;;;;5102095;27;61717;-75
2022/09/22 09:21:43;;;;;;;;;9.75;7.50;;;;;;;;5102589;27;62155;-76
2022/09/22 09:24:12;;;;;;;;;12.75;8.25;;;;;;;;5101961;27;62019;-76
2022/09/22 09:26:37;;;;;;;;;9.00;6.00;;;;;;;;5101785;27;61906;-75
2022/09/22 09:29:04;;;;;;;;;13.00;7.50;;;;;;;;5101669;27;61902;-76
2022/09/22 09:31:30;;;;;;;;;12.75;5.75;;;;;;;;5101072;27;63880;-76
2022/09/22 09:34:02;;;;;;;;;6.75;5.00;;;;;;;;5103023;27;61987;-75
2022/09/22 09:36:30;;;;;;;;;7.25;4.25;;;;;;;;5102658;27;62442;-76
2022/09/22 09:38:56;;;;;;;;;9.00;7.50;;;;;;;;5102817;27;61997;-76
2022/09/22 09:41:22;;;;;;;;;9.25;8.25;;;;;;;;5102395;27;62078;-76
2022/09/22 09:43:50;;;;;;;;;12.25;8.75;;;;;;;;5101535;27;61999;-76
2022/09/22 09:46:38;;;;;;;;;8.25;7.00;;;;;;;;5102767;27;61875;-75
2022/09/22 09:49:18;;;;;;;;;6.75;5.75;;;;;;;;5101633;27;61831;-76
2022/09/22 09:51:44;;;;;;;;;7.75;5.00;;;;;;;;5102144;27;62259;-76
2022/09/22 09:54:13;;;;;;;;;8.25;5.00;;;;;;;;5101576;27;62043;-76
2022/09/22 09:56:58;;;;;;;;;5.00;3.75;;;;;;;;5102609;27;61805;-76
2022/09/22 10:02:13;;;;;;;;;5.00;5.00;;;;;;;;5101987;27;62322;-75
2022/09/22 10:04:38;;;;;;;;;6.25;5.00;;;;;;;;5102536;27;61712;-76
2022/09/22 10:07:11;;;;;;;;;7.50;6.00;;;;;;;;5102247;27;62034;-76
2022/09/22 10:09:38;;;;;;;;;3.75;3.75;;;;;;;;5102458;27;61957;-75
2022/09/22 10:12:04;;;;;;;;;7.75;4.75;;;;;;;;5102380;27;63663;-76
2022/09/22 10:14:33;;;;;;;;;3.00;3.00;;;;;;;;5104689;27;62094;-76
2022/09/22 10:16:58;;;;;;;;;3.75;2.75;;;;;;;;5104720;27;61885;-76
2022/09/22 10:19:24;;;;;;;;;4.00;3.00;;;;;;;;5104939;27;62093;-76
2022/09/22 10:21:49;;;;;;;;;8.75;7.50;;;;;;;;5103815;27;64594;-76
2022/09/22 10:24:41;;;;;;;;;4.75;3.25;;;;;;;;5103817;27;62576;-76
2022/09/22 10:27:18;;;;;;;;;6.00;6.00;;;;;;;;5101957;27;61971;-76
2022/09/22 10:29:43;;;;;;;;;5.50;3.00;;;;;;;;5104810;27;62172;-76
2022/09/22 10:32:15;;;;;;;;;3.75;2.00;;;;;;;;5105075;27;63028;-76
2022/09/22 10:34:40;;;;;;;;;2.00;2.00;;;;;;;;5104162;27;62295;-75
2022/09/22 10:37:09;;;;;;;;;5.00;4.00;;;;;;;;5104291;27;61955;-76
2022/09/22 10:39:35;;;;;;;;;2.25;2.25;;;;;;;;5105835;27;61685;-76
2022/09/22 10:42:01;;;;;;;;;4.50;3.00;;;;;;;;5105241;27;61896;-76
2022/09/22 10:44:27;;;;;;;;;4.75;3.00;;;;;;;;5104190;27;61752;-76
2022/09/22 10:47:11;;;;;;;;;3.00;2.25;;;;;;;;5104149;27;61785;-76
2022/09/22 10:49:45;;;;;;;;;1.00;1.00;;;;;;;;5105550;27;61913;-76
2022/09/22 10:52:15;;;;;;;;;2.50;1.00;;;;;;;;5103660;27;65289;-76
2022/09/22 10:54:52;;;;;;;;;1.50;1.50;;;;;;;;5103202;27;62006;-76
2022/09/22 10:57:27;;;;;;;;;0.50;0.50;;;;;;;;5104093;27;61891;-76
2022/09/22 11:00:22;;;;;;;;;3.50;1.25;;;;;;;;5105872;27;61819;-76
2022/09/22 11:03:05;;;;;;;;;2.00;1.00;;;;;;;;5089820;27;65006;-76
2022/09/22 11:14:09;;;;;;;;;2.25;1.75;;;;;;;;5104733;27;61671;-76
2022/09/22 11:16:54;;;;;;;;;1.75;1.75;;;;;;;;5103622;27;61765;-76
2022/09/22 11:19:28;;;;;;;;;4.50;2.75;;;;;;;;5103405;27;61718;-77
2022/09/22 11:21:53;;;;;;;;;4.75;2.75;;;;;;;;5103710;27;61992;-76
2022/09/22 11:24:19;;;;;;;;;3.25;1.75;;;;;;;;5101016;27;63770;-77
2022/09/22 11:26:47;;;;;;;;;3.75;2.75;;;;;;;;5103546;27;62009;-77
2022/09/22 11:29:19;;;;;;;;;2.25;2.00;;;;;;;;5105192;27;61934;-77
2022/09/22 11:31:44;;;;;;;;;2.00;2.00;;;;;;;;5104958;27;62098;-77
2022/09/22 11:34:29;;;;;;;;;1.25;1.25;;;;;;;;5102832;27;63547;-79
2022/09/22 11:36:54;;;;;;;;;2.25;2.25;;;;;;;;5100783;27;61976;-78
2022/09/22 11:39:19;;;;;;;;;1.75;0.50;;;;;;;;5102716;27;61981;-78
2022/09/22 11:42:00;;;;;;;;;2.00;2.00;;;;;;;;5102964;27;62274;-78
2022/09/22 11:44:25;;;;;;;;;2.00;2.00;;;;;;;;5102226;27;64708;-78
2022/09/22 11:46:54;;;;;;;;;1.75;1.00;;;;;;;;5102624;27;61899;-78
2022/09/22 11:49:35;;;;;;;;;0.50;0.50;;;;;;;;5102363;27;62029;-77
2022/09/22 11:52:19;;;;;;;;;1.25;1.25;;;;;;;;5102997;27;61864;-77
2022/09/22 11:55:01;;;;;;;;;1.75;1.75;;;;;;;;5101904;27;62338;-77
2022/09/22 11:57:30;;;;;;;;;1.00;1.00;;;;;;;;5102316;27;61843;-77
2022/09/22 12:00:15;;;;;;;;;2.00;1.00;;;;;;;;5103950;27;61739;-77
2022/09/22 12:02:47;;;;;;;;;0.00;0.00;;;;;;;;5104117;27;61938;-77
2022/09/22 12:05:25;;;;;;;;;1.00;1.00;;;;;;;;5102319;27;63732;-77
2022/09/22 12:08:10;;;;;;;;;2.00;1.00;;;;;;;;5102067;27;62240;-77
2022/09/22 12:10:41;;;;;;;;;1.00;0.00;;;;;;;;5104234;27;61966;-77
2022/09/22 12:13:10;;;;;;;;;0.00;0.00;;;;;;;;5103054;27;61833;-77
2022/09/22 12:15:38;;;;;;;;;0.00;0.00;;;;;;;;5103411;27;61780;-77
2022/09/22 12:18:15;;;;;;;;;1.00;1.00;;;;;;;;5103789;27;61935;-77
2022/09/22 12:20:43;;;;;;;;;0.00;0.00;;;;;;;;5102352;27;61880;-77
2022/09/22 12:23:11;;;;;;;;;0.67;0.67;;;;;;;;5103438;27;61673;-78
2022/09/22 12:25:54;;;;;;;;;0.00;0.00;;;;;;;;5101801;27;64879;-77
2022/09/22 12:28:25;;;;;;;;;0.67;0.67;;;;;;;;5103626;27;61622;-77
2022/09/22 12:30:55;;;;;;;;;0.33;0.33;;;;;;;;5102067;27;61778;-77
2022/09/22 12:33:20;;;;;;;;;2.67;1.67;;;;;;;;5102330;27;61911;-77
2022/09/22 12:35:51;;;;;;;;;2.00;1.33;;;;;;;;5100968;27;62766;-77
2022/09/22 12:38:19;;;;;;;;;0.00;0.00;;;;;;;;5102001;27;61938;-77
2022/09/22 12:40:47;;;;;;;;;0.00;0.00;;;;;;;;5101618;27;61752;-77
2022/09/22 12:43:14;;;;;;;;;0.33;0.33;;;;;;;;5101651;27;61859;-77
2022/09/22 12:45:42;;;;;;;;;1.00;0.00;;;;;;;;5097361;27;64009;-78
2022/09/22 12:48:21;;;;;;;;;1.00;1.00;;;;;;;;5102230;27;61270;-78
2022/09/22 12:50:47;;;;;;;;;3.00;1.00;;;;;;;;5100316;27;61894;-77
2022/09/22 12:53:22;;;;;;;;;1.00;1.00;;;;;;;;5100117;27;61887;-77
2022/09/22 12:55:48;;;;;;;;;3.67;1.00;;;;;;;;5099556;27;62141;-77
2022/09/22 12:58:19;;;;;;;;;0.00;0.00;;;;;;;;5101532;27;61972;-77
2022/09/22 13:00:45;;;;;;;;;0.00;0.00;;;;;;;;5100226;27;61905;-78
2022/09/22 13:03:25;;;;;;;;;1.00;1.00;;;;;;;;5100382;27;61843;-78
2022/09/22 13:05:52;;;;;;;;;0.33;0.33;;;;;;;;5099014;27;64084;-78
2022/09/22 13:08:22;;;;;;;;;1.67;0.00;;;;;;;;5101241;27;61813;-77
2022/09/22 13:10:53;;;;;;;;;3.00;2.00;;;;;;;;5100305;27;61914;-78
2022/09/22 13:13:38;;;;;;;;;1.00;0.00;;;;;;;;5099117;27;61956;-78
2022/09/22 13:16:29;;;;;;;;;1.67;1.00;;;;;;;;5098505;27;62064;-78
2022/09/22 13:18:58;;;;;;;;;2.33;1.00;;;;;;;;5099268;27;61852;-78
2022/09/22 13:21:24;;;;;;;;;1.00;1.00;;;;;;;;5100710;27;61801;-78
2022/09/22 13:23:50;;;;;;;;;0.67;0.67;;;;;;;;5101426;27;61863;-77
2022/09/22 13:26:17;;;;;;;;;1.00;0.00;;;;;;;;5100851;27;64485;-78
2022/09/22 13:28:42;;;;;;;;;0.67;0.67;;;;;;;;5100567;27;61881;-78
2022/09/22 13:31:12;;;;;;;;;0.33;0.33;;;;;;;;5100097;27;62360;-78
2022/09/22 13:33:38;;;;;;;;;6.33;6.33;;;;;;;;5100286;27;61761;-78
2022/09/22 13:36:08;;;;;;;;;0.00;0.00;;;;;;;;5099082;27;63928;-78
2022/09/22 13:38:41;;;;;;;;;0.00;0.00;;;;;;;;5099572;27;61796;-78
2022/09/22 13:41:17;;;;;;;;;0.33;0.33;;;;;;;;5100049;27;62561;-78
2022/09/22 13:43:44;;;;;;;;;0.00;0.00;;;;;;;;5097904;27;61820;-78
2022/09/22 13:46:19;;;;;;;;;1.00;1.00;;;;;;;;5100939;27;62612;-78
2022/09/22 13:48:44;;;;;;;;;1.67;0.67;;;;;;;;5101911;27;62140;-78
2022/09/22 13:51:13;;;;;;;;;1.00;1.00;;;;;;;;5104207;27;61896;-77
2022/09/22 13:53:41;;;;;;;;;2.33;1.00;;;;;;;;5103220;27;62056;-78
2022/09/22 13:56:10;;;;;;;;;2.33;0.67;;;;;;;;5103724;27;61931;-78
2022/09/22 13:58:38;;;;;;;;;4.00;1.67;;;;;;;;5104521;27;61759;-78
2022/09/22 14:01:11;;;;;;;;;2.00;0.67;;;;;;;;5100540;27;61817;-77
2022/09/22 14:03:37;;;;;;;;;4.00;1.00;;;;;;;;5103705;27;62229;-78
2022/09/22 14:06:04;;;;;;;;;1.00;1.00;;;;;;;;5103917;27;62127;-77
2022/09/22 14:08:31;;;;;;;;;0.00;0.00;;;;;;;;5102752;27;62043;-77
2022/09/22 14:10:58;;;;;;;;;0.33;0.33;;;;;;;;5104643;27;61814;-77
2022/09/22 14:13:36;;;;;;;;;1.00;1.00;;;;;;;;5104499;27;62486;-77
2022/09/22 14:16:12;;;;;;;;;0.00;0.00;;;;;;;;5100772;27;65090;-77
2022/09/22 14:18:40;;;;;;;;;1.00;1.00;;;;;;;;5100958;27;61922;-77
2022/09/22 14:21:08;;;;;;;;;1.00;1.00;;;;;;;;5104359;27;61930;-77
2022/09/22 14:23:33;;;;;;;;;0.00;0.00;;;;;;;;5099965;27;61821;-77
2022/09/22 14:26:18;;;;;;;;;0.00;0.00;;;;;;;;5102430;27;63354;-78
2022/09/22 14:28:44;;;;;;;;;1.00;1.00;;;;;;;;5101117;27;61834;-78
2022/09/22 14:31:14;;;;;;;;;1.00;1.00;;;;;;;;5104091;27;61864;-78
2022/09/22 14:33:40;;;;;;;;;1.00;1.00;;;;;;;;5103207;27;62188;-79
2022/09/22 14:36:07;;;;;;;;;2.33;2.33;;;;;;;;5101751;27;63640;-78
2022/09/22 14:38:40;;;;;;;;;2.00;2.00;;;;;;;;5102370;27;61933;-79
2022/09/22 14:41:39;;;;;;;;;1.00;1.00;;;;;;;;5102664;27;61867;-79
2022/09/22 14:44:32;;;;;;;;;2.33;1.00;;;;;;;;5058453;28;61936;-79
2022/09/22 14:47:05;;;;;;;;;0.00;0.00;;;;;;;;5040843;28;64109;-78
2022/09/22 14:49:33;;;;;;;;;1.00;1.00;;;;;;;;5061730;28;61835;-80
2022/09/22 14:51:59;;;;;;;;;1.00;1.00;;;;;;;;5062195;28;61900;-79
2022/09/22 14:54:28;;;;;;;;;2.00;2.00;;;;;;;;5061383;28;61998;-78
2022/09/22 14:56:57;;;;;;;;;2.33;1.00;;;;;;;;5077740;28;64065;-78
2022/09/22 15:04:52;;;;;;;;;2.00;0.67;;;;;;;;5062198;28;61760;-78
2022/09/22 15:07:24;;;;;;;;;0.67;0.67;;;;;;;;5060865;28;63114;-78